Time;durP1;ratioP1;P1;durP2;ratioP2;P2;SDS_P1;SDS_P2;PMS_P1;PMS_P2;Temp;Humidity;BMP_temperature;BMP_pressure;BME280_temperature;BME280_humidity;BME280_pressure;Samples;Min_cycle;Max_cycle;Signal;HPM_P1;HPM_P2
2022/11/26 00:00:14;;;;;;;7.60;4.78;;;;;;;7.04;66.91;99750.22;5027794;28;20042;-73
2022/11/26 00:02:41;;;;;;;6.40;4.93;;;;;;;7.05;67.04;99756.34;5026226;28;20050;-72
2022/11/26 00:05:12;;;;;;;7.70;5.55;;;;;;;7.04;66.89;99757.25;5027132;28;20045;-72
2022/11/26 00:07:39;;;;;;;7.15;5.72;;;;;;;6.79;67.01;99719.47;5026200;28;20085;-72
2022/11/26 00:10:16;;;;;;;7.15;5.68;;;;;;;7.01;67.00;99768.78;5027550;28;20053;-72
2022/11/26 00:12:43;;;;;;;7.45;5.85;;;;;;;7.02;66.99;99772.28;5027182;28;20104;-72
2022/11/26 00:15:16;;;;;;;6.47;5.10;;;;;;;6.84;66.88;99746.53;5027507;28;20050;-72
2022/11/26 00:17:43;;;;;;;8.30;5.47;;;;;;;7.01;67.06;99783.72;5026166;28;20041;-72
2022/11/26 00:20:10;;;;;;;6.10;4.75;;;;;;;6.99;67.21;99773.22;5026790;28;20054;-72
2022/11/26 00:22:41;;;;;;;8.38;5.97;;;;;;;6.97;67.22;99782.97;5027185;28;20056;-73
2022/11/26 00:25:18;;;;;;;8.30;5.63;;;;;;;6.57;67.23;99712.28;5025845;28;20320;-72
2022/11/26 00:27:45;;;;;;;8.52;6.13;;;;;;;6.97;67.17;99792.66;5026874;28;20045;-73
2022/11/26 00:30:18;;;;;;;7.15;5.88;;;;;;;6.97;67.44;99790.00;5026638;28;20107;-72
2022/11/26 00:32:46;;;;;;;8.60;6.40;;;;;;;6.97;67.49;99790.88;5027429;28;20050;-72
2022/11/26 00:35:13;;;;;;;7.82;6.30;;;;;;;6.96;67.52;99798.81;5026513;28;20049;-73
2022/11/26 00:37:43;;;;;;;10.02;6.95;;;;;;;6.94;67.65;99790.97;5026211;28;20050;-72
2022/11/26 00:40:19;;;;;;;8.13;5.72;;;;;;;6.95;67.82;99791.84;5025669;28;20045;-72
2022/11/26 00:42:46;;;;;;;8.73;5.97;;;;;;;6.94;67.72;99790.13;5026926;28;20042;-72
2022/11/26 00:45:28;;;;;;;7.90;6.82;;;;;;;6.94;68.05;99790.97;5026675;28;20317;-72
2022/11/26 00:47:56;;;;;;;9.73;6.22;;;;;;;6.22;67.94;99678.34;5026865;28;20068;-73
2022/11/26 00:50:24;;;;;;;8.50;5.97;;;;;;;6.92;67.98;99803.34;5026888;28;20253;-72
2022/11/26 00:52:54;;;;;;;8.88;6.38;;;;;;;6.92;68.25;99799.84;5026119;28;20053;-72
2022/11/26 00:55:29;;;;;;;8.25;5.55;;;;;;;6.92;68.53;99810.38;5025384;28;20045;-72
2022/11/26 00:57:56;;;;;;;7.68;5.80;;;;;;;6.41;68.29;99742.66;5026560;28;20069;-73
2022/11/26 01:00:26;;;;;;;6.95;5.85;;;;;;;6.92;68.68;99800.69;5026148;28;20225;-73
2022/11/26 01:02:54;;;;;;;6.18;4.88;;;;;;;6.94;68.66;99806.78;5026116;28;20046;-73
2022/11/26 01:05:22;;;;;;;7.28;5.75;;;;;;;6.93;68.84;99802.44;5025202;28;20050;-72
2022/11/26 01:07:49;;;;;;;9.30;5.65;;;;;;;6.93;69.13;99814.75;5025134;28;20104;-72
2022/11/26 01:10:18;;;;;;;7.18;5.70;;;;;;;6.92;69.24;99813.88;5026276;28;20072;-72
2022/11/26 01:12:45;;;;;;;7.32;5.30;;;;;;;6.93;69.48;99822.66;5026017;28;20229;-73
2022/11/26 01:15:12;;;;;;;8.43;5.88;;;;;;;6.93;69.53;99822.66;5026217;28;20046;-72
2022/11/26 01:17:41;;;;;;;8.82;6.30;;;;;;;6.94;69.64;99822.59;5025819;28;20049;-72
2022/11/26 01:20:20;;;;;;;7.93;6.38;;;;;;;6.94;70.21;99832.28;5026308;28;20045;-73
2022/11/26 01:22:48;;;;;;;9.07;6.75;;;;;;;6.39;69.88;99765.53;5025808;28;20041;-72
2022/11/26 01:25:15;;;;;;;9.07;6.45;;;;;;;6.92;70.19;99840.22;5025787;28;20046;-72
2022/11/26 01:27:42;;;;;;;9.55;6.70;;;;;;;6.90;70.16;99846.47;5025746;28;20049;-72
2022/11/26 01:30:24;;;;;;;10.23;7.22;;;;;;;6.88;70.73;99858.81;5024036;28;20053;-72
2022/11/26 01:32:53;;;;;;;9.00;6.70;;;;;;;6.86;70.29;99848.34;5026258;28;20096;-72
2022/11/26 01:35:21;;;;;;;8.38;6.13;;;;;;;6.84;70.37;99857.19;5024883;28;20339;-72
2022/11/26 01:37:48;;;;;;;8.27;6.40;;;;;;;6.82;70.41;99864.28;5024815;28;20033;-72
2022/11/26 01:40:38;;;;;;;8.60;6.72;;;;;;;6.82;71.12;99866.91;5026057;28;20058;-72
2022/11/26 01:43:11;;;;;;;10.77;7.70;;;;;;;6.82;70.53;99872.19;5025911;28;20046;-72
2022/11/26 01:45:38;;;;;;;9.15;6.93;;;;;;;6.81;70.55;99870.47;5026219;28;20046;-72
2022/11/26 01:48:24;;;;;;;9.00;7.63;;;;;;;6.83;71.00;99873.91;5024662;28;20313;-72
2022/11/26 01:50:55;;;;;;;9.80;7.50;;;;;;;6.79;70.65;99873.13;5025243;28;20202;-73
2022/11/26 01:53:30;;;;;;;11.18;7.68;;;;;;;6.79;71.04;99874.88;5024783;28;20049;-72
2022/11/26 01:55:58;;;;;;;;;;;;;;;6.72;71.93;99880.34;5025086;28;20042;-73
2022/11/26 01:58:29;;;;;;;9.32;7.80;;;;;;;5.98;71.15;99751.03;5025762;28;19927;-73
2022/11/26 02:00:56;;;;;;;11.70;8.90;;;;;;;6.77;71.02;99884.63;5025712;28;20042;-73
2022/11/26 02:03:24;;;;;;;10.13;8.52;;;;;;;6.79;71.05;99888.06;5024617;28;20080;-73
2022/11/26 02:05:57;;;;;;;10.73;8.45;;;;;;;6.60;71.14;99857.03;5025720;28;20305;-73
2022/11/26 02:08:25;;;;;;;11.32;10.20;;;;;;;6.81;71.11;99891.53;5025354;28;20309;-73
2022/11/26 02:10:52;;;;;;;11.77;9.30;;;;;;;6.81;71.14;99892.41;5025691;28;20061;-73
2022/11/26 02:13:20;;;;;;;16.05;9.77;;;;;;;6.81;71.14;99897.69;5025365;28;20045;-73
2022/11/26 02:15:55;;;;;;;10.70;8.45;;;;;;;6.78;71.41;99889.84;5025566;28;20037;-72
2022/11/26 02:18:25;;;;;;;12.13;8.93;;;;;;;6.81;71.21;99888.91;5025308;28;20046;-72
2022/11/26 02:20:56;;;;;;;9.90;8.45;;;;;;;6.79;71.30;99888.91;5025310;28;20046;-73
2022/11/26 02:23:59;;;;;;;10.75;8.65;;;;;;;6.80;72.03;99895.94;5025271;28;20038;-72
2022/11/26 02:27:01;;;;;;;12.30;9.07;;;;;;;6.78;72.26;99892.47;5025195;28;20038;-73
2022/11/26 02:29:49;;;;;;;12.30;8.63;;;;;;;6.75;71.56;99880.25;5023989;28;20050;-72
2022/11/26 02:32:22;;;;;;;9.43;7.95;;;;;;;6.76;71.67;99886.38;5025675;28;20092;-73
2022/11/26 02:34:55;;;;;;;12.40;10.00;;;;;;;6.59;71.66;99849.16;5025252;28;20046;-73
2022/11/26 02:37:27;;;;;;;10.93;8.98;;;;;;;6.74;71.57;99886.44;5024463;28;20040;-73
2022/11/26 02:39:54;;;;;;;10.18;8.82;;;;;;;6.77;71.58;99889.88;5025060;28;20225;-73
2022/11/26 02:42:25;;;;;;;10.98;8.52;;;;;;;6.78;71.64;99891.59;5027806;28;20042;-72
2022/11/26 02:44:55;;;;;;;9.60;8.57;;;;;;;6.79;71.58;99894.19;5028887;28;20041;-73
2022/11/26 02:47:26;;;;;;;10.65;9.15;;;;;;;6.79;71.62;99893.31;5027993;28;20042;-73
2022/11/26 02:49:55;;;;;;;11.55;9.27;;;;;;;6.82;71.61;99895.91;5028858;28;20281;-72
2022/11/26 02:52:24;;;;;;;10.30;8.73;;;;;;;6.81;71.66;99897.69;5028428;28;20046;-72
2022/11/26 02:54:52;;;;;;;11.15;8.48;;;;;;;6.22;71.50;99809.94;5028416;28;20041;-72
2022/11/26 02:57:24;;;;;;;11.48;9.70;;;;;;;6.84;71.56;99902.84;5027571;28;20048;-72
2022/11/26 02:59:51;;;;;;;11.27;9.05;;;;;;;6.85;71.57;99906.34;5027536;28;20045;-72
2022/11/26 03:02:26;;;;;;;11.73;8.57;;;;;;;6.84;72.15;99902.84;5027539;28;20049;-72
2022/11/26 03:04:57;;;;;;;10.13;9.02;;;;;;;6.83;71.94;99914.28;5027633;28;20171;-72
2022/11/26 03:07:25;;;;;;;11.38;9.07;;;;;;;6.84;71.81;99912.53;5028631;28;20045;-72
2022/11/26 03:09:55;;;;;;;11.20;9.48;;;;;;;6.83;71.84;99910.81;5027921;28;20045;-73
2022/11/26 03:12:22;;;;;;;10.68;8.15;;;;;;;6.86;71.79;99908.06;5028385;28;20356;-73
2022/11/26 03:14:50;;;;;;;11.25;8.18;;;;;;;6.66;71.83;99877.91;5027986;28;20092;-72
2022/11/26 03:17:17;;;;;;;12.50;10.23;;;;;;;6.87;71.96;99909.78;5028052;28;20069;-73
2022/11/26 03:19:45;;;;;;;11.35;8.85;;;;;;;6.51;71.92;99848.53;5027536;28;20048;-73
2022/11/26 03:22:12;;;;;;;10.50;9.07;;;;;;;6.88;71.87;99903.63;5027149;28;20076;-73
2022/11/26 03:24:39;;;;;;;11.68;9.13;;;;;;;6.87;71.92;99900.13;5028447;28;20073;-73
2022/11/26 03:27:06;;;;;;;12.23;9.57;;;;;;;6.86;72.11;99905.44;5027806;28;20092;-73
2022/11/26 03:29:33;;;;;;;10.80;9.23;;;;;;;6.87;72.02;99913.28;5027013;28;20045;-73
2022/11/26 03:32:00;;;;;;;9.63;8.43;;;;;;;6.31;71.92;99836.00;5027797;28;20041;-73
2022/11/26 03:34:26;;;;;;;10.93;9.48;;;;;;;6.88;71.82;99917.66;5027770;28;20089;-72
2022/11/26 03:36:55;;;;;;;11.75;9.13;;;;;;;6.88;71.95;99922.91;5027726;28;20328;-73
2022/11/26 03:39:21;;;;;;;10.32;8.25;;;;;;;6.90;71.91;99925.50;5026841;28;20054;-73
2022/11/26 03:41:48;;;;;;;12.93;9.88;;;;;;;6.88;71.95;99925.56;5027020;28;20290;-73
2022/11/26 03:44:15;;;;;;;10.88;9.48;;;;;;;6.88;71.94;99929.97;5027556;28;20209;-73
2022/11/26 03:46:42;;;;;;;12.20;9.85;;;;;;;6.88;72.19;99924.69;5027979;28;20057;-73
2022/11/26 03:49:08;;;;;;;11.85;9.75;;;;;;;5.92;72.03;99773.13;5027432;28;20038;-73
2022/11/26 03:51:35;;;;;;;10.85;9.10;;;;;;;6.87;72.32;99928.25;5027550;28;20119;-73
2022/11/26 03:54:03;;;;;;;10.85;9.10;;;;;;;6.87;72.32;99928.25;5026668;28;20064;-72
2022/11/26 03:56:30;;;;;;;10.70;9.57;;;;;;;6.87;72.18;99933.50;5026872;28;20092;-73
2022/11/26 03:58:57;;;;;;;11.27;8.75;;;;;;;6.84;72.30;99934.47;5028084;28;20092;-72
2022/11/26 04:01:24;;;;;;;10.10;8.30;;;;;;;6.88;72.55;99945.78;5027516;28;20053;-73
2022/11/26 04:03:51;;;;;;;11.77;10.45;;;;;;;6.88;72.70;99944.00;5027533;28;20285;-72
2022/11/26 04:06:17;;;;;;;12.90;10.23;;;;;;;6.88;72.77;99938.72;5027523;28;20052;-73
2022/11/26 04:08:44;;;;;;;10.85;9.57;;;;;;;6.87;72.87;99949.31;5027343;28;20100;-73
2022/11/26 04:11:12;;;;;;;11.90;9.77;;;;;;;6.85;73.18;99954.63;5026592;28;20174;-72
2022/11/26 04:13:39;;;;;;;11.35;10.07;;;;;;;6.86;73.13;99958.13;5027077;28;20293;-73
2022/11/26 04:16:06;;;;;;;12.77;11.02;;;;;;;6.86;73.33;99952.88;5026438;28;20045;-73
2022/11/26 04:18:33;;;;;;;11.13;9.43;;;;;;;6.68;73.39;99935.81;5027484;28;20038;-73
2022/11/26 04:21:00;;;;;;;12.65;10.30;;;;;;;6.84;73.47;99967.84;5026938;28;20042;-73
2022/11/26 04:23:27;;;;;;;11.88;9.68;;;;;;;6.85;73.40;99972.22;5026202;28;20054;-73
2022/11/26 04:25:53;;;;;;;12.00;9.73;;;;;;;6.85;73.39;99974.84;5027667;28;20260;-73
2022/11/26 04:28:21;;;;;;;10.82;9.73;;;;;;;6.88;73.15;99972.97;5026983;28;20045;-72
2022/11/26 04:30:48;;;;;;;12.52;9.80;;;;;;;6.89;73.02;99972.06;5027273;28;20061;-73
2022/11/26 04:33:15;;;;;;;13.75;10.10;;;;;;;6.89;73.04;99979.97;5026714;28;20045;-73
2022/11/26 04:35:42;;;;;;;10.57;8.10;;;;;;;6.90;73.08;99980.84;5026643;28;20049;-73
2022/11/26 04:38:09;;;;;;;10.95;9.48;;;;;;;6.89;73.04;99987.88;5025995;28;20038;-73
2022/11/26 04:40:36;;;;;;;9.77;8.55;;;;;;;6.33;72.80;99892.94;5025994;28;20049;-73
2022/11/26 04:43:03;;;;;;;12.02;9.55;;;;;;;6.90;72.95;99983.47;5027016;28;20046;-73
2022/11/26 04:45:31;;;;;;;12.13;10.15;;;;;;;6.89;72.93;99989.66;5026719;28;20053;-73
2022/11/26 04:47:58;;;;;;;10.65;9.13;;;;;;;6.89;72.92;100002.84;5026620;28;20052;-72
2022/11/26 04:50:25;;;;;;;10.23;9.15;;;;;;;6.88;72.96;100009.88;5026369;28;20046;-72
2022/11/26 04:52:52;;;;;;;12.95;10.07;;;;;;;6.88;72.87;100007.25;5026391;28;20089;-73
2022/11/26 04:55:18;;;;;;;11.93;9.77;;;;;;;6.89;72.87;100005.47;5026233;28;20041;-73
2022/11/26 04:57:47;;;;;;;13.23;9.60;;;;;;;6.88;73.05;100009.00;5026208;28;20041;-73
2022/11/26 05:00:15;;;;;;;12.40;9.82;;;;;;;6.84;73.05;100002.97;5026197;28;20069;-73
2022/11/26 05:02:43;;;;;;;13.13;10.80;;;;;;;6.90;73.23;100017.72;5025347;28;20244;-73
2022/11/26 05:05:10;;;;;;;10.77;8.65;;;;;;;6.89;73.59;100014.22;5025994;28;20237;-73
2022/11/26 05:07:37;;;;;;;11.55;9.35;;;;;;;6.89;73.59;100008.09;5026278;28;20045;-73
2022/11/26 05:10:05;;;;;;;10.55;8.70;;;;;;;6.89;73.59;100021.28;5025205;28;20045;-72
2022/11/26 05:12:32;;;;;;;11.48;9.30;;;;;;;6.88;73.51;100011.66;5025210;28;20084;-72
2022/11/26 05:14:58;;;;;;;10.57;8.60;;;;;;;6.88;73.29;100006.38;5026243;28;20071;-72
2022/11/26 05:17:25;;;;;;;12.57;10.07;;;;;;;6.88;73.48;100009.00;5025359;28;20034;-73
2022/11/26 05:19:53;;;;;;;11.50;9.05;;;;;;;6.86;73.53;100016.97;5025868;28;20061;-72
2022/11/26 05:22:20;;;;;;;11.40;8.85;;;;;;;6.67;73.79;99979.72;5025863;28;20064;-73
2022/11/26 05:24:47;;;;;;;10.80;8.57;;;;;;;6.84;73.54;100012.66;5025802;28;20045;-72
2022/11/26 05:27:13;;;;;;;12.30;10.02;;;;;;;6.83;73.48;100011.78;5025980;28;20042;-72
2022/11/26 05:29:40;;;;;;;11.25;8.73;;;;;;;6.83;73.54;100009.16;5026046;28;20046;-73
2022/11/26 05:32:07;;;;;;;9.27;8.07;;;;;;;6.83;73.45;100017.06;5025980;28;20332;-73
2022/11/26 05:34:33;;;;;;;13.30;10.13;;;;;;;6.84;73.39;100017.91;5025915;28;20045;-73
2022/11/26 05:37:02;;;;;;;11.93;8.35;;;;;;;6.84;73.27;100016.13;5025642;28;20328;-73
2022/11/26 05:39:28;;;;;;;11.10;8.63;;;;;;;6.85;73.11;100020.50;5024815;28;20085;-72
2022/11/26 05:41:55;;;;;;;11.93;9.27;;;;;;;6.86;73.20;100021.38;5025660;28;20229;-72
2022/11/26 05:44:22;;;;;;;9.10;7.80;;;;;;;6.85;73.13;100027.53;5026061;28;20046;-72
2022/11/26 05:46:48;;;;;;;12.43;9.70;;;;;;;6.83;73.15;100029.34;5026104;28;20050;-72
2022/11/26 05:49:15;;;;;;;11.10;9.00;;;;;;;6.84;73.05;100039.00;5025737;28;20042;-73
2022/11/26 05:51:42;;;;;;;10.98;8.70;;;;;;;6.84;73.06;100034.59;5024421;28;20100;-73
2022/11/26 05:54:13;;;;;;;10.35;8.32;;;;;;;6.83;73.20;100045.16;5026054;28;20060;-73
2022/11/26 05:56:40;;;;;;;11.15;8.07;;;;;;;6.84;73.03;100042.50;5025781;28;20305;-73
2022/11/26 05:59:06;;;;;;;9.57;8.32;;;;;;;6.84;72.93;100050.41;5025894;28;20085;-73
2022/11/26 06:01:33;;;;;;;11.93;8.85;;;;;;;6.84;73.01;100049.53;5024620;28;20092;-73
2022/11/26 06:04:00;;;;;;;10.52;8.70;;;;;;;6.50;73.19;100002.19;5024610;28;20045;-73
2022/11/26 06:06:27;;;;;;;10.40;8.85;;;;;;;6.29;73.05;99983.44;5025418;28;20042;-73
2022/11/26 06:08:54;;;;;;;10.73;8.80;;;;;;;6.84;73.23;100054.81;5025494;28;20045;-73
2022/11/26 06:11:22;;;;;;;10.52;8.07;;;;;;;6.68;73.34;100031.50;5024588;28;20050;-73
2022/11/26 06:13:48;;;;;;;9.18;8.13;;;;;;;6.86;73.11;100074.06;5024507;28;20044;-72
2022/11/26 06:16:15;;;;;;;10.93;8.93;;;;;;;6.86;73.07;100084.59;5026235;28;20061;-73
2022/11/26 06:18:42;;;;;;;11.65;9.63;;;;;;;6.86;73.12;100077.56;5029144;28;20206;-73
2022/11/26 06:21:09;;;;;;;13.40;9.05;;;;;;;6.87;73.11;100078.44;5029415;28;20053;-72
2022/11/26 06:23:35;;;;;;;10.65;9.45;;;;;;;6.62;73.13;100033.44;5029329;28;20060;-72
2022/11/26 06:26:08;;;;;;;11.63;9.57;;;;;;;6.86;73.44;100084.59;5029224;28;20286;-73
2022/11/26 06:28:36;;;;;;;12.05;9.32;;;;;;;6.51;73.21;100017.94;5027959;28;20089;-72
2022/11/26 06:31:03;;;;;;;10.38;9.27;;;;;;;6.69;73.11;100067.47;5028878;28;20045;-73
2022/11/26 06:33:30;;;;;;;11.65;9.10;;;;;;;6.54;73.11;100033.66;5029103;28;20053;-73
2022/11/26 06:35:59;;;;;;;12.23;10.18;;;;;;;6.90;73.21;100096.78;5027737;28;20041;-73
2022/11/26 06:38:25;;;;;;;10.45;9.38;;;;;;;6.89;73.30;100101.19;5028668;28;20221;-73
2022/11/26 06:40:58;;;;;;;10.93;9.80;;;;;;;6.90;73.46;100100.28;5027755;28;20037;-73
2022/11/26 06:43:24;;;;;;;10.68;9.52;;;;;;;6.92;73.29;100108.16;5028927;28;20042;-73
2022/11/26 06:45:52;;;;;;;12.43;9.80;;;;;;;6.91;73.24;100104.66;5028534;28;20237;-72
2022/11/26 06:48:23;;;;;;;12.45;10.60;;;;;;;6.92;73.21;100109.00;5028307;28;20053;-72
2022/11/26 06:50:50;;;;;;;11.70;8.95;;;;;;;6.95;73.25;100110.69;5028311;28;20194;-73
2022/11/26 06:53:17;;;;;;;12.15;10.25;;;;;;;6.94;73.33;100112.47;5028469;28;20053;-73
2022/11/26 06:55:43;;;;;;;13.38;10.43;;;;;;;6.93;73.30;100123.06;5027600;28;20045;-72
2022/11/26 06:58:10;;;;;;;10.02;9.02;;;;;;;6.93;73.34;100145.00;5028679;28;20045;-73
2022/11/26 07:00:37;;;;;;;10.80;9.23;;;;;;;6.94;73.25;100127.41;5028365;28;20174;-72
2022/11/26 07:03:05;;;;;;;12.93;8.95;;;;;;;6.94;73.34;100130.06;5028634;28;20041;-72
2022/11/26 07:05:34;;;;;;;12.85;9.80;;;;;;;6.94;73.28;100133.53;5028367;28;20297;-72
2022/11/26 07:08:00;;;;;;;16.13;9.07;;;;;;;6.44;73.24;100061.16;5028105;28;20249;-73
2022/11/26 07:10:27;;;;;;;14.82;10.75;;;;;;;6.95;73.38;100151.09;5028189;28;20048;-73
2022/11/26 07:12:54;;;;;;;14.65;10.50;;;;;;;6.96;73.47;100215.19;5027806;28;20037;-73
2022/11/26 07:15:21;;;;;;;11.88;9.82;;;;;;;6.97;73.47;100151.91;5027904;28;20240;-72
2022/11/26 07:17:48;;;;;;;16.95;11.40;;;;;;;7.00;73.40;100153.59;5028460;28;20225;-73
2022/11/26 07:20:16;;;;;;;12.35;9.90;;;;;;;7.00;73.48;100157.09;5027261;28;20046;-72
2022/11/26 07:22:43;;;;;;;11.25;10.00;;;;;;;6.26;73.23;100043.22;5027984;28;20053;-72
2022/11/26 07:25:11;;;;;;;10.95;9.63;;;;;;;7.03;73.30;100159.66;5028101;28;20282;-73
2022/11/26 07:27:37;;;;;;;12.27;9.98;;;;;;;7.04;73.26;100168.41;5028394;28;20069;-72
2022/11/26 07:30:05;;;;;;;11.80;9.65;;;;;;;7.06;73.37;100166.59;5026989;28;20044;-73
2022/11/26 07:32:32;;;;;;;12.30;10.50;;;;;;;7.08;73.33;100164.78;5026933;28;20041;-72
2022/11/26 07:34:59;;;;;;;13.27;10.63;;;;;;;7.11;73.50;100169.97;5027889;28;20136;-72
2022/11/26 07:37:28;;;;;;;13.35;11.45;;;;;;;7.12;73.81;100176.09;5027888;28;20048;-72
2022/11/26 07:39:54;;;;;;;17.13;10.57;;;;;;;7.11;73.64;100177.88;5027471;28;20037;-73
2022/11/26 07:42:21;;;;;;;14.95;11.95;;;;;;;7.13;73.95;100172.56;5027844;28;20104;-72
2022/11/26 07:44:48;;;;;;;11.40;10.00;;;;;;;7.14;74.25;100174.28;5027755;28;20053;-72
2022/11/26 07:47:14;;;;;;;14.80;11.65;;;;;;;7.12;74.21;100179.59;5027639;28;20289;-72
2022/11/26 07:49:41;;;;;;;11.73;10.38;;;;;;;6.79;74.26;100130.44;5027908;28;20045;-72
2022/11/26 07:52:08;;;;;;;11.02;9.52;;;;;;;7.14;74.38;100188.34;5027264;28;20070;-72
2022/11/26 07:54:36;;;;;;;11.23;9.57;;;;;;;7.14;74.59;100190.97;5027259;28;20041;-73
2022/11/26 07:57:03;;;;;;;12.45;10.05;;;;;;;7.14;74.93;100192.75;5026452;28;20045;-73
2022/11/26 07:59:29;;;;;;;11.38;9.48;;;;;;;7.16;74.98;100198.84;5027263;28;20375;-73
2022/11/26 08:01:56;;;;;;;17.27;10.52;;;;;;;6.81;75.03;100160.28;5027571;28;20046;-72
2022/11/26 08:04:23;;;;;;;11.57;10.05;;;;;;;7.14;75.46;100196.25;5026270;28;20038;-73
2022/11/26 08:06:50;;;;;;;11.90;10.80;;;;;;;7.15;75.68;100199.75;5026286;28;20257;-73
2022/11/26 08:09:16;;;;;;;12.52;10.88;;;;;;;7.16;75.96;100193.56;5026992;28;20038;-72
2022/11/26 08:11:45;;;;;;;12.82;10.75;;;;;;;7.16;76.09;100202.34;5027028;28;20048;-72
2022/11/26 08:14:12;;;;;;;16.73;10.68;;;;;;;7.16;75.86;100210.25;5027045;28;20060;-72
2022/11/26 08:16:40;;;;;;;13.68;10.00;;;;;;;7.16;76.05;100204.13;5026130;28;20044;-72
2022/11/26 08:19:11;;;;;;;11.40;9.57;;;;;;;6.98;76.27;100174.72;5027157;28;20045;-72
2022/11/26 08:21:38;;;;;;;14.20;10.15;;;;;;;7.17;76.21;100211.97;5026024;28;20088;-72
2022/11/26 08:24:06;;;;;;;11.23;9.60;;;;;;;7.17;75.89;100206.72;5026866;28;20037;-72
2022/11/26 08:26:34;;;;;;;14.70;9.70;;;;;;;6.65;75.67;100141.34;5026912;28;20046;-72
2022/11/26 08:29:02;;;;;;;12.50;9.48;;;;;;;7.20;75.78;100203.13;5026530;28;20084;-72
2022/11/26 08:31:29;;;;;;;11.30;10.05;;;;;;;7.22;75.78;100210.09;5026916;28;20064;-73
2022/11/26 08:33:57;;;;;;;12.27;9.80;;;;;;;7.24;75.67;100207.41;5026836;28;20049;-72
2022/11/26 08:36:24;;;;;;;10.65;9.55;;;;;;;7.25;75.88;100207.34;5026322;28;20088;-73
2022/11/26 08:38:51;;;;;;;10.18;8.75;;;;;;;7.29;75.67;100211.63;5025762;28;20050;-73
2022/11/26 08:41:18;;;;;;;11.93;9.10;;;;;;;7.32;75.50;100200.13;5026697;28;20072;-73
2022/11/26 08:43:45;;;;;;;13.07;7.78;;;;;;;7.34;75.40;100212.41;5026974;28;20050;-73
2022/11/26 08:46:13;;;;;;;12.65;8.60;;;;;;;7.38;75.03;100210.53;5026659;28;20096;-73
2022/11/26 08:48:40;;;;;;;10.65;8.88;;;;;;;7.43;74.97;100205.13;5026809;28;20049;-73
2022/11/26 08:51:08;;;;;;;12.45;8.93;;;;;;;7.52;74.94;100207.50;5025746;28;20197;-73
2022/11/26 08:53:36;;;;;;;10.00;7.65;;;;;;;6.92;74.84;100116.06;5026737;28;20045;-73
2022/11/26 08:56:04;;;;;;;10.25;7.45;;;;;;;7.71;74.53;100208.69;5026205;28;20069;-73
2022/11/26 08:58:33;;;;;;;10.60;7.03;;;;;;;7.77;74.33;100207.66;5026282;28;20046;-73
2022/11/26 09:01:00;;;;;;;7.85;6.90;;;;;;;7.82;74.35;100216.28;5025270;28;20052;-72
2022/11/26 09:03:31;;;;;;;8.73;6.90;;;;;;;7.88;74.33;100216.09;5026000;28;20038;-72
2022/11/26 09:06:01;;;;;;;8.20;6.35;;;;;;;7.91;73.81;100223.94;5026231;28;20076;-73
2022/11/26 09:08:27;;;;;;;9.13;5.90;;;;;;;7.94;73.64;100216.78;5026330;28;20060;-73
2022/11/26 09:10:55;;;;;;;7.43;6.13;;;;;;;7.98;73.44;100228.09;5025790;28;20228;-72
2022/11/26 09:13:22;;;;;;;8.43;5.88;;;;;;;8.03;73.30;100224.41;5026440;28;20060;-73
2022/11/26 09:15:49;;;;;;;7.82;5.95;;;;;;;7.56;73.00;100156.38;5024966;28;20053;-72
2022/11/26 09:18:15;;;;;;;6.82;5.30;;;;;;;8.11;72.92;100234.75;5025873;28;20048;-72
2022/11/26 09:20:44;;;;;;;13.20;6.72;;;;;;;8.14;72.83;100229.38;5026394;28;20092;-72
2022/11/26 09:23:10;;;;;;;10.70;6.53;;;;;;;8.18;72.75;100230.13;5025701;28;20145;-72
2022/11/26 09:25:38;;;;;;;7.68;6.05;;;;;;;8.19;72.48;100224.78;5024669;28;20042;-73
2022/11/26 09:28:05;;;;;;;7.63;5.88;;;;;;;8.21;72.32;100230.03;5025751;28;20044;-73
2022/11/26 09:30:32;;;;;;;9.32;7.30;;;;;;;8.24;72.38;100235.22;5025861;28;20042;-73
2022/11/26 09:32:58;;;;;;;6.45;5.30;;;;;;;8.26;72.31;100238.69;5025859;28;20095;-73
2022/11/26 09:35:25;;;;;;;8.38;5.20;;;;;;;8.24;72.16;100229.94;5024767;28;20309;-73
2022/11/26 09:37:54;;;;;;;9.30;6.03;;;;;;;8.26;72.22;100233.38;5025882;28;20104;-73
2022/11/26 09:40:25;;;;;;;8.48;6.40;;;;;;;8.06;72.23;100196.19;5025939;28;20193;-72
2022/11/26 09:43:04;;;;;;;7.78;5.72;;;;;;;8.20;71.81;100231.81;5024735;28;20310;-72
2022/11/26 09:45:40;;;;;;;7.20;6.00;;;;;;;8.19;71.87;100234.50;5025427;28;20354;-72
2022/11/26 09:48:14;;;;;;;9.68;6.00;;;;;;;7.84;71.73;100211.81;5025330;28;20049;-73
2022/11/26 09:50:42;;;;;;;9.10;5.55;;;;;;;8.02;71.76;100264.94;5024738;28;20225;-73
2022/11/26 09:53:16;;;;;;;8.07;5.20;;;;;;;8.21;71.86;100232.66;5029472;28;20096;-73
2022/11/26 09:55:47;;;;;;;8.70;6.00;;;;;;;8.21;71.73;100227.38;5028761;28;20042;-73
2022/11/26 09:58:19;;;;;;;8.82;5.75;;;;;;;8.21;71.51;100230.03;5029387;28;20057;-73
2022/11/26 10:00:48;;;;;;;12.95;7.45;;;;;;;8.24;71.42;100227.28;5029439;28;20076;-73
2022/11/26 10:03:17;;;;;;;7.05;5.47;;;;;;;8.25;71.46;100226.38;5028411;28;20305;-73
2022/11/26 10:05:50;;;;;;;6.40;5.00;;;;;;;8.26;71.23;100222.81;5029560;28;20053;-73
2022/11/26 10:08:35;;;;;;;10.10;6.25;;;;;;;8.06;70.85;100196.19;5029676;28;20054;-73
2022/11/26 10:11:06;;;;;;;;;;;;;;;8.18;70.82;100236.28;5028823;28;20302;-73
2022/11/26 10:13:44;;;;;;;8.05;6.22;;;;;;;8.21;71.13;100236.19;5029651;28;19917;-73
2022/11/26 10:16:20;;;;;;;6.63;5.35;;;;;;;8.25;71.24;100240.44;5029323;28;20033;-72
2022/11/26 10:18:58;;;;;;;6.78;5.13;;;;;;;8.09;70.99;100199.59;5028162;28;20042;-72
2022/11/26 10:21:28;;;;;;;8.07;5.28;;;;;;;8.33;70.84;100243.72;5028567;28;20053;-73
2022/11/26 10:24:01;;;;;;;8.48;5.10;;;;;;;8.31;70.72;100247.31;5028404;28;20046;-73
2022/11/26 10:26:32;;;;;;;9.07;5.90;;;;;;;8.33;70.61;100242.84;5029255;28;20053;-73
2022/11/26 10:29:14;;;;;;;7.05;5.10;;;;;;;7.31;70.20;100062.16;5029394;28;20049;-72
2022/11/26 10:31:43;;;;;;;9.27;4.85;;;;;;;6.46;70.34;99908.38;5011895;28;20041;-73
2022/11/26 10:34:16;;;;;;;11.27;5.28;;;;;;;8.35;70.13;100231.31;5028933;28;20046;-73
2022/11/26 10:36:46;;;;;;;7.38;5.13;;;;;;;8.20;70.29;100199.25;5028864;28;20042;-73
2022/11/26 10:39:16;;;;;;;6.10;4.97;;;;;;;8.42;70.21;100228.47;5028767;28;20060;-73
2022/11/26 10:41:44;;;;;;;7.85;5.30;;;;;;;8.47;70.34;100242.41;5028610;28;20050;-73
2022/11/26 10:44:30;;;;;;;7.68;4.50;;;;;;;8.50;69.69;100231.75;5028874;28;20041;-73
2022/11/26 10:46:57;;;;;;;8.23;5.45;;;;;;;7.98;69.98;100148.91;5027701;28;20205;-73
2022/11/26 10:49:25;;;;;;;6.72;5.22;;;;;;;8.56;69.73;100236.81;5028570;28;20045;-73
2022/11/26 10:51:56;;;;;;;9.45;5.40;;;;;;;8.59;69.66;100239.34;5027521;28;20061;-73
2022/11/26 10:54:39;;;;;;;8.18;5.28;;;;;;;8.62;68.99;100242.75;5028785;28;20052;-73
2022/11/26 10:57:13;;;;;;;6.85;5.25;;;;;;;8.63;68.87;100241.84;5027555;28;20049;-73
2022/11/26 10:59:47;;;;;;;7.47;4.87;;;;;;;8.62;68.81;100232.19;5028520;28;20041;-74
2022/11/26 11:02:30;;;;;;;7.82;4.95;;;;;;;8.70;68.02;100234.59;5027859;28;20376;-73
2022/11/26 11:05:01;;;;;;;11.05;4.82;;;;;;;8.72;68.83;100221.31;5028182;28;20076;-73
2022/11/26 11:07:34;;;;;;;9.18;5.07;;;;;;;8.36;68.86;100163.50;5028508;28;20080;-73
2022/11/26 11:10:14;;;;;;;6.22;5.03;;;;;;;8.81;68.38;100231.56;5026937;28;20038;-73
2022/11/26 11:12:42;;;;;;;7.60;5.35;;;;;;;8.85;68.75;100227.91;5027341;28;20045;-73
2022/11/26 11:15:20;;;;;;;6.03;4.72;;;;;;;8.86;67.98;100235.78;5028143;28;20057;-74
2022/11/26 11:17:54;;;;;;;7.00;5.20;;;;;;;8.90;68.83;100225.97;5028309;28;20045;-73
2022/11/26 11:20:33;;;;;;;7.13;5.65;;;;;;;8.93;68.63;100226.72;5028258;28;20049;-73
2022/11/26 11:23:18;;;;;;;6.30;4.97;;;;;;;8.99;68.25;100226.53;5027178;28;20041;-73
2022/11/26 11:25:56;;;;;;;5.63;4.80;;;;;;;8.89;68.08;100203.09;5028507;28;20104;-73
2022/11/26 11:28:26;;;;;;;8.30;4.88;;;;;;;9.20;68.02;100230.22;5027035;28;20092;-73
2022/11/26 11:31:01;;;;;;;6.85;5.13;;;;;;;9.27;67.29;100226.44;5027734;28;20046;-74
2022/11/26 11:33:29;;;;;;;7.40;5.72;;;;;;;9.36;67.80;100219.94;5028048;28;20053;-74
2022/11/26 11:36:05;;;;;;;8.02;5.30;;;;;;;9.39;67.08;100222.47;5026695;28;20052;-73
2022/11/26 11:38:34;;;;;;;7.40;4.80;;;;;;;9.39;67.55;100216.31;5027935;28;20045;-73
2022/11/26 11:41:11;;;;;;;7.07;5.00;;;;;;;9.49;67.13;100229.19;5027544;28;20049;-73